Terminal Aerodrome Forecast
Issued by NWS Sioux Falls, SD

Home | Current Version | Previous Version | Text Only | Print | Product List | Glossary Off
Versions: 1 2 3 4 5 6 7 8 9 10 11 12 13 14

000
FTUS43 KFSD 091100
TAFHON
TAF
KHON 091130Z 0912/1012 VRB03KT 5SM BR FEW080
     FM091400 33005KT P6SM SKC
     FM091600 35007KT P6SM SCT050
     FM092200 06007KT P6SM SCT060
     FM100200 10005KT P6SM SKC
     FM101000 12009KT P6SM BKN120=

USA.gov is the U.S. government's official web portal to all federal, state and local government web resources and services.